createdAt,value
2023-02-03T00:01:40.996Z,99071.59
2023-02-03T00:04:46.082Z,99078.66
2023-02-03T00:07:50.354Z,99073.22
2023-02-03T00:10:55.388Z,99084.09
2023-02-03T00:13:59.560Z,99075.09
2023-02-03T00:17:03.057Z,99078.66
2023-02-03T00:20:09.007Z,99078.66
2023-02-03T00:23:13.886Z,99084.44
2023-02-03T00:26:19.728Z,99084.09
2023-02-03T00:29:26.033Z,99093.91
2023-02-03T00:32:30.009Z,99098.81
2023-02-03T00:35:35.400Z,99103.94
2023-02-03T00:38:40.757Z,99102.28
2023-02-03T00:41:44.599Z,99110.69
2023-02-03T00:44:48.019Z,99111.28
2023-02-03T00:47:51.664Z,99108.56
2023-02-03T00:50:56.860Z,99104.75
2023-02-03T00:54:02.384Z,99095.50
2023-02-03T00:57:06.287Z,99093.63
2023-02-03T01:00:11.906Z,99089.25
2023-02-03T01:03:15.629Z,99093.28
2023-02-03T01:06:22.443Z,99088.41
2023-02-03T01:09:25.827Z,99079.19
2023-02-03T01:12:31.839Z,99073.66
2023-02-03T01:15:35.926Z,99075.78
2023-02-03T01:18:40.492Z,99082.31
2023-02-03T01:21:45.405Z,99076.03
2023-02-03T01:24:48.952Z,99074.97
2023-02-03T01:27:52.469Z,99078.28
2023-02-03T01:30:56.144Z,99079.66
2023-02-03T01:34:00.309Z,99075.56
2023-02-03T01:37:06.084Z,99078.03
2023-02-03T01:40:11.537Z,99074.72
2023-02-03T01:43:31.459Z,99070.34
2023-02-03T01:46:40.289Z,99063.78
2023-02-03T01:49:53.020Z,99065.69
2023-02-03T01:53:04.080Z,99063.19
2023-02-03T01:56:09.411Z,99057.22
2023-02-03T01:59:17.026Z,99053.38
2023-02-03T02:02:21.654Z,99050.09
2023-02-03T02:05:35.448Z,99045.28
2023-02-03T02:08:45.254Z,99049.88
2023-02-03T02:11:48.800Z,99044.41
2023-02-03T02:14:52.689Z,99049.34
2023-02-03T02:18:25.330Z,99052.38
2023-02-03T02:21:52.908Z,99055.44
2023-02-03T02:25:35.813Z,99039.69
2023-02-03T02:29:29.555Z,99037.16
2023-02-03T02:32:58.490Z,99022.16
2023-02-03T02:36:20.085Z,99004.91
2023-02-03T02:39:35.080Z,99002.97
2023-02-03T02:43:01.133Z,98987.72
2023-02-03T02:46:14.860Z,98985.25
2023-02-03T02:49:29.318Z,98984.78
2023-02-03T02:52:40.988Z,98981.94
2023-02-03T02:55:48.912Z,98987.97
2023-02-03T02:58:57.038Z,99006.50
2023-02-03T03:02:01.947Z,99020.13
2023-02-03T03:05:11.872Z,99012.38
2023-02-03T03:08:29.813Z,99025.47
2023-02-03T03:11:42.551Z,99030.25
2023-02-03T03:14:53.538Z,99035.69
2023-02-03T03:18:07.517Z,99028.31
2023-02-03T03:21:21.350Z,99014.69
2023-02-03T03:24:32.468Z,99013.06
2023-02-03T03:27:45.012Z,99004.06
2023-02-03T03:30:48.749Z,98997.81
2023-02-03T03:33:52.644Z,98987.66
2023-02-03T03:37:09.703Z,98982.31
2023-02-03T03:40:23.630Z,98974.25
2023-02-03T03:43:35.500Z,98970.84
2023-02-03T03:46:50.101Z,98964.81
2023-02-03T03:49:59.110Z,98965.66
2023-02-03T03:53:08.624Z,98964.44
2023-02-03T03:56:20.498Z,98972.59
2023-02-03T03:59:32.496Z,98968.72
2023-02-03T04:02:40.412Z,98971.44
2023-02-03T04:05:45.723Z,98966.81
2023-02-03T04:08:50.499Z,98975.81
2023-02-03T04:12:03.824Z,98976.06
2023-02-03T04:15:08.057Z,98962.44
2023-02-03T04:18:14.793Z,98963.84
2023-02-03T04:21:18.129Z,98957.69
2023-02-03T04:24:23.347Z,98960.06
2023-02-03T04:27:26.808Z,98954.53
2023-02-03T04:30:30.649Z,98958.50
2023-02-03T04:33:34.167Z,98949.69
2023-02-03T04:36:37.887Z,98943.09
2023-02-03T04:39:42.581Z,98949.88
2023-02-03T04:42:46.384Z,98932.72
2023-02-03T04:45:52.135Z,98923.75
2023-02-03T04:48:56.217Z,98918.13
2023-02-03T04:51:59.525Z,98915.66
2023-02-03T04:55:05.073Z,98912.69
2023-02-03T04:58:08.453Z,98900.09
2023-02-03T05:01:12.454Z,98902.81
2023-02-03T05:04:15.850Z,98896.34
2023-02-03T05:07:19.890Z,98901.22
2023-02-03T05:10:24.954Z,98891.16
2023-02-03T05:13:29.007Z,98893.06
2023-02-03T05:16:32.448Z,98881.06
2023-02-03T05:19:36.401Z,98883.78
2023-02-03T05:22:39.799Z,98884.06
2023-02-03T05:25:46.506Z,98871.84
2023-02-03T05:28:51.086Z,98865.88
2023-02-03T05:31:56.444Z,98856.63
2023-02-03T05:34:59.859Z,98850.63
2023-02-03T05:38:03.650Z,98844.38
2023-02-03T05:41:25.739Z,98835.66
2023-02-03T05:44:30.362Z,98828.31
2023-02-03T05:47:33.649Z,98820.47
2023-02-03T05:50:38.886Z,98817.56
2023-02-03T05:53:45.027Z,98815.03
2023-02-03T05:56:50.301Z,98809.81
2023-02-03T05:59:53.702Z,98810.41
2023-02-03T06:03:00.754Z,98816.03
2023-02-03T06:06:04.702Z,98812.75
2023-02-03T06:09:10.258Z,98808.38
2023-02-03T06:12:17.736Z,98802.06
2023-02-03T06:15:24.565Z,98791.41
2023-02-03T06:18:28.055Z,98789.34
2023-02-03T06:21:31.994Z,98797.66
2023-02-03T06:24:35.442Z,98795.25
2023-02-03T06:27:40.372Z,98797.84
2023-02-03T06:30:44.703Z,98777.47
2023-02-03T06:33:51.521Z,98784.91
2023-02-03T06:36:54.744Z,98777.81
2023-02-03T06:39:58.258Z,98757.16
2023-02-03T06:43:02.940Z,98752.31
2023-02-03T06:46:06.772Z,98739.81
2023-02-03T06:49:10.366Z,98736.78
2023-02-03T06:52:14.399Z,98734.31
2023-02-03T06:55:17.847Z,98735.41
2023-02-03T06:58:22.843Z,98733.78
2023-02-03T07:01:26.985Z,98734.59
2023-02-03T07:04:31.127Z,98738.19
2023-02-03T07:07:34.394Z,98725.69
2023-02-03T07:10:37.841Z,98724.38
2023-02-03T07:13:42.421Z,98717.28
2023-02-03T07:16:45.953Z,98696.91
2023-02-03T07:19:49.215Z,98700.03
2023-02-03T07:22:54.671Z,98699.19
2023-02-03T07:26:00.767Z,98687.47
2023-02-03T07:29:06.200Z,98678.47
2023-02-03T07:32:09.583Z,98673.31
2023-02-03T07:35:13.143Z,98671.38
2023-02-03T07:38:17.510Z,98650.66
2023-02-03T07:41:21.535Z,98661.31
2023-02-03T07:44:26.268Z,98655.06
2023-02-03T07:47:30.379Z,98643.34
2023-02-03T07:50:33.719Z,98636.22
2023-02-03T07:53:37.874Z,98631.84
2023-02-03T07:56:41.158Z,98623.09
2023-02-03T07:59:46.081Z,98609.72
2023-02-03T08:02:49.330Z,98592.25
2023-02-03T08:05:53.544Z,98591.16
2023-02-03T08:08:56.905Z,98578.06
2023-02-03T08:12:00.487Z,98575.31
2023-02-03T08:15:06.562Z,98584.03
2023-02-03T08:18:12.597Z,98576.41
2023-02-03T08:21:15.927Z,98586.50
2023-02-03T08:24:19.740Z,98574.50
2023-02-03T08:27:24.061Z,98576.66
2023-02-03T08:30:29.574Z,98563.31
2023-02-03T08:33:32.937Z,98553.44
2023-02-03T08:36:39.340Z,98570.44
2023-02-03T08:39:43.421Z,98553.78
2023-02-03T08:42:47.160Z,98539.56
2023-02-03T08:45:51.977Z,98530.56
2023-02-03T08:48:56.514Z,98522.66
2023-02-03T08:52:00.219Z,98538.47
2023-02-03T08:55:03.893Z,98525.66
2023-02-03T08:58:07.303Z,98525.63
2023-02-03T09:01:15.990Z,98525.06
2023-02-03T09:04:24.813Z,98521.78
2023-02-03T09:07:29.045Z,98511.44
2023-02-03T09:10:32.585Z,98527.81
2023-02-03T09:13:36.640Z,98505.97
2023-02-03T09:16:41.683Z,98505.91
2023-02-03T09:19:45.236Z,98487.88
2023-02-03T09:22:48.462Z,98492.50
2023-02-03T09:25:52.283Z,98483.47
2023-02-03T09:28:56.114Z,98465.50
2023-02-03T09:32:06.909Z,98466.53
2023-02-03T09:35:10.616Z,98448.81
2023-02-03T09:38:14.131Z,98451.03
2023-02-03T09:41:38.080Z,98443.09
2023-02-03T09:44:52.314Z,98419.88
2023-02-03T09:48:05.621Z,98404.88
2023-02-03T09:51:22.366Z,98390.94
2023-02-03T09:54:38.933Z,98370.47
2023-02-03T09:57:53.810Z,98362.88
2023-02-03T10:01:01.269Z,98357.97
2023-02-03T10:04:27.917Z,98356.38
2023-02-03T10:07:46.566Z,98329.66
2023-02-03T10:11:10.510Z,98322.75
2023-02-03T10:14:35.227Z,98317.00
2023-02-03T10:17:44.301Z,98297.38
2023-02-03T10:20:54.945Z,98289.91
2023-02-03T10:24:01.749Z,98281.81
2023-02-03T10:27:05.972Z,98260.69
2023-02-03T10:30:22.493Z,98243.75
2023-02-03T10:33:29.279Z,98230.09
2023-02-03T10:36:51.552Z,98218.63
2023-02-03T10:39:57.140Z,98210.50
2023-02-03T10:43:18.239Z,98199.59
2023-02-03T10:46:29.317Z,98184.03
2023-02-03T10:49:32.827Z,98174.38
2023-02-03T10:52:37.678Z,98163.47
2023-02-03T10:55:41.259Z,98152.28
2023-02-03T10:58:51.239Z,98130.25
2023-02-03T11:01:55.218Z,98124.50
2023-02-03T11:05:19.256Z,98111.78
2023-02-03T11:08:31.787Z,98105.78
2023-02-03T11:11:37.416Z,98090.47
2023-02-03T11:14:44.306Z,98083.03
2023-02-03T11:17:47.697Z,98063.09
2023-02-03T11:20:51.307Z,98051.09
2023-02-03T11:24:10.107Z,98041.34
2023-02-03T11:27:19.747Z,98024.94
2023-02-03T11:30:30.129Z,98018.03
2023-02-03T11:33:34.495Z,98006.28
2023-02-03T11:36:37.829Z,97992.66
2023-02-03T11:39:42.875Z,97998.09
2023-02-03T11:43:00.935Z,97980.16
2023-02-03T11:46:09.616Z,97979.53
2023-02-03T11:49:40.325Z,97968.13
2023-02-03T11:53:04.798Z,97964.28
2023-02-03T11:56:41.422Z,97938.63
2023-02-03T12:00:13.397Z,97937.50
2023-02-03T12:03:43.000Z,97919.22
2023-02-03T12:07:17.145Z,97901.00
2023-02-03T12:10:40.484Z,97890.41
2023-02-03T12:14:07.615Z,97892.28
2023-02-03T12:17:35.657Z,97875.66
2023-02-03T12:21:00.589Z,97875.19
2023-02-03T12:24:20.398Z,97851.88
2023-02-03T12:27:45.013Z,97840.84
2023-02-03T12:31:01.234Z,97833.03
2023-02-03T12:34:23.487Z,97819.78
2023-02-03T12:37:33.635Z,97805.66
2023-02-03T12:40:47.694Z,97793.06
2023-02-03T12:44:00.884Z,97791.44
2023-02-03T12:47:15.970Z,97781.75
2023-02-03T12:50:24.562Z,97767.94
2023-02-03T12:53:37.658Z,97761.47
2023-02-03T12:56:45.728Z,97747.16
2023-02-03T13:00:05.594Z,97739.69
2023-02-03T13:03:29.320Z,97725.63
2023-02-03T13:06:45.551Z,97711.16
2023-02-03T13:10:00.807Z,97705.72
2023-02-03T13:13:07.653Z,97691.63
2023-02-03T13:16:16.136Z,97680.13
2023-02-03T13:19:28.250Z,97674.03
2023-02-03T13:22:32.187Z,97662.94
2023-02-03T13:25:55.983Z,97648.47
2023-02-03T13:29:23.902Z,97632.00
2023-02-03T13:32:59.354Z,97627.50
2023-02-03T13:36:30.914Z,97616.06
2023-02-03T13:40:07.105Z,97600.50
2023-02-03T13:43:36.923Z,97577.94
2023-02-03T13:46:42.534Z,97573.16
2023-02-03T13:49:55.835Z,97564.47
2023-02-03T13:53:16.398Z,97562.06
2023-02-03T13:56:24.108Z,97560.06
2023-02-03T13:59:43.013Z,97553.19
2023-02-03T14:02:54.519Z,97556.03
2023-02-03T14:06:01.152Z,97544.81
2023-02-03T14:09:22.864Z,97534.59
2023-02-03T14:12:37.392Z,97534.44
2023-02-03T14:15:40.789Z,97533.72
2023-02-03T14:18:47.901Z,97524.28
2023-02-03T14:21:58.882Z,97529.97
2023-02-03T14:25:09.282Z,97520.31
2023-02-03T14:28:19.302Z,97534.88
2023-02-03T14:31:28.411Z,97521.31
2023-02-03T14:34:36.384Z,97525.66
2023-02-03T14:37:40.878Z,97530.13
2023-02-03T14:40:57.184Z,97529.47
2023-02-03T14:44:14.934Z,97519.78
2023-02-03T14:47:37.214Z,97516.75
2023-02-03T14:51:02.753Z,97500.94
2023-02-03T14:54:31.432Z,97496.00
2023-02-03T14:57:47.892Z,97487.97
2023-02-03T15:00:53.620Z,97496.31
2023-02-03T15:04:24.456Z,97475.56
2023-02-03T15:07:46.444Z,97480.53
2023-02-03T15:10:50.220Z,97491.50
2023-02-03T15:13:56.490Z,97493.63
2023-02-03T15:17:03.656Z,97481.97
2023-02-03T15:20:27.188Z,97480.78
2023-02-03T15:23:42.066Z,97470.75
2023-02-03T15:26:52.253Z,97481.63
2023-02-03T15:29:59.025Z,97462.00
2023-02-03T15:33:08.964Z,97486.09
2023-02-03T15:36:21.773Z,97496.72
2023-02-03T15:39:40.725Z,97493.63
2023-02-03T15:42:56.336Z,97504.47
2023-02-03T15:46:13.197Z,97511.25
2023-02-03T15:49:22.608Z,97520.66
2023-02-03T15:52:29.380Z,97518.47
2023-02-03T15:55:40.494Z,97501.78
2023-02-03T15:58:47.478Z,97508.97
2023-02-03T16:01:54.042Z,97507.53
2023-02-03T16:04:58.743Z,97511.78
2023-02-03T16:08:37.815Z,97522.06
2023-02-03T16:11:41.708Z,97520.06
2023-02-03T16:14:45.870Z,97526.84
2023-02-03T16:17:57.599Z,97523.38
2023-02-03T16:21:01.056Z,97520.84
2023-02-03T16:24:06.340Z,97541.03
2023-02-03T16:27:33.906Z,97545.69
2023-02-03T16:30:55.518Z,97553.47
2023-02-03T16:34:21.041Z,97551.41
2023-02-03T16:37:46.056Z,97556.78
2023-02-03T16:41:07.010Z,97565.97
2023-02-03T16:44:30.403Z,97569.59
2023-02-03T16:47:51.227Z,97555.66
2023-02-03T16:50:58.315Z,97579.34
2023-02-03T16:54:02.735Z,97570.25
2023-02-03T16:57:06.133Z,97580.84
2023-02-03T17:00:13.915Z,97589.13
2023-02-03T17:03:21.849Z,97586.69
2023-02-03T17:06:27.000Z,97592.81
2023-02-03T17:09:34.950Z,97581.91
2023-02-03T17:12:38.659Z,97578.69
2023-02-03T17:15:43.721Z,97584.75
2023-02-03T17:18:48.412Z,97597.84
2023-02-03T17:21:53.339Z,97618.03
2023-02-03T17:24:57.121Z,97615.81
2023-02-03T17:28:00.653Z,97620.19
2023-02-03T17:31:07.823Z,97621.81
2023-02-03T17:34:11.489Z,97615.84
2023-02-03T17:37:16.487Z,97622.69
2023-02-03T17:53:47.089Z,97620.34
2023-02-03T17:56:50.617Z,97629.50
2023-02-03T17:59:55.346Z,97628.94
2023-02-03T18:02:58.812Z,97638.16
2023-02-03T18:06:04.295Z,97642.50
2023-02-03T18:09:13.943Z,97641.41
2023-02-03T18:12:17.422Z,97643.13
2023-02-03T18:15:21.467Z,97646.78
2023-02-03T18:18:25.968Z,97647.88
2023-02-03T18:21:32.236Z,97644.34
2023-02-03T18:24:39.086Z,97649.66
2023-02-03T18:27:42.534Z,97655.13
2023-02-03T18:30:46.059Z,97648.56
2023-02-03T18:33:49.734Z,97663.94
2023-02-03T18:36:53.166Z,97647.56
2023-02-03T18:39:58.034Z,97657.13
2023-02-03T18:43:02.366Z,97657.84
2023-02-03T18:46:08.328Z,97657.84
2023-02-03T18:49:14.058Z,97670.09
2023-02-03T18:52:17.729Z,97671.50
2023-02-03T18:55:22.887Z,97665.97
2023-02-03T18:58:26.329Z,97670.88
2023-02-03T19:01:32.557Z,97680.28
2023-02-03T19:04:36.089Z,97677.63
2023-02-03T19:07:39.624Z,97686.03
2023-02-03T19:10:44.571Z,97684.63
2023-02-03T19:13:48.345Z,97690.72
2023-02-03T19:16:53.195Z,97679.06
2023-02-03T19:19:56.590Z,97694.38
2023-02-03T19:23:00.160Z,97701.56
2023-02-03T19:26:05.154Z,97694.72
2023-02-03T19:29:08.752Z,97698.84
2023-02-03T19:32:12.924Z,97704.09
2023-02-03T19:35:16.807Z,97698.41
2023-02-03T19:38:20.454Z,97710.03
2023-02-03T19:41:26.283Z,97699.66
2023-02-03T19:44:29.829Z,97705.91
2023-02-03T19:47:33.517Z,97702.47
2023-02-03T19:50:37.620Z,97705.63
2023-02-03T19:53:41.655Z,97711.50
2023-02-03T19:56:46.598Z,97718.00
2023-02-03T19:59:50.428Z,97705.72
2023-02-03T20:02:53.775Z,97711.97
2023-02-03T20:05:57.409Z,97704.31
2023-02-03T20:09:00.819Z,97718.44
2023-02-03T20:12:06.563Z,97718.97
2023-02-03T20:15:10.072Z,97724.28
2023-02-03T20:18:13.589Z,97717.94
2023-02-03T20:21:17.051Z,97714.50
2023-02-03T20:24:20.844Z,97724.72
2023-02-03T20:27:25.720Z,97715.34
2023-02-03T20:30:29.811Z,97703.84
2023-02-03T20:33:33.391Z,97696.72
2023-02-03T20:36:36.835Z,97709.88
2023-02-03T20:39:40.266Z,97696.78
2023-02-03T20:42:45.204Z,97711.47
2023-02-03T20:45:49.803Z,97698.63
2023-02-03T20:48:53.306Z,97698.34
2023-02-03T20:51:56.830Z,97704.09
2023-02-03T20:55:00.227Z,97704.00
2023-02-03T20:58:16.561Z,97701.25
2023-02-03T21:01:22.716Z,97698.16
2023-02-03T21:04:45.073Z,97711.50
2023-02-03T21:07:48.542Z,97707.97
2023-02-03T21:10:52.430Z,97698.97
2023-02-03T21:13:58.316Z,97708.06
2023-02-03T21:17:01.913Z,97709.47
2023-02-03T21:20:25.673Z,97714.53
2023-02-03T21:23:42.203Z,97710.25
2023-02-03T21:26:45.703Z,97701.31
2023-02-03T21:29:55.598Z,97723.63
2023-02-03T21:33:00.237Z,97710.78
2023-02-03T21:36:03.405Z,97700.97
2023-02-03T21:39:27.166Z,97699.88
2023-02-03T21:42:43.410Z,97703.19
2023-02-03T21:45:48.607Z,97697.63
2023-02-03T21:48:53.563Z,97705.44
2023-02-03T21:51:56.989Z,97702.22
2023-02-03T21:55:00.151Z,97701.31
2023-02-03T21:58:22.077Z,97710.03
2023-02-03T22:01:33.475Z,97710.41
2023-02-03T22:04:36.951Z,97701.91
2023-02-03T22:07:40.199Z,97706.59
2023-02-03T22:10:43.792Z,97698.16
2023-02-03T22:13:48.345Z,97709.22
2023-02-03T22:16:53.216Z,97687.50
2023-02-03T22:19:56.588Z,97697.88
2023-02-03T22:23:00.087Z,97697.38
2023-02-03T22:26:03.631Z,97695.88
2023-02-03T22:29:07.131Z,97716.59
2023-02-03T22:32:11.677Z,97692.84
2023-02-03T22:35:15.272Z,97691.97
2023-02-03T22:38:18.706Z,97691.22
2023-02-03T22:41:22.140Z,97686.22
2023-02-03T22:44:25.568Z,97687.84
2023-02-03T22:47:30.443Z,97697.38
2023-02-03T22:50:36.218Z,97692.72
2023-02-03T22:53:40.439Z,97686.69
2023-02-03T22:56:44.230Z,97686.72
2023-02-03T22:59:47.694Z,97685.38
2023-02-03T23:02:52.778Z,97672.56
2023-02-03T23:05:58.543Z,97679.59
2023-02-03T23:09:02.812Z,97678.16
2023-02-03T23:12:07.840Z,97673.66
2023-02-03T23:15:11.855Z,97660.81
2023-02-03T23:18:16.738Z,97668.47
2023-02-03T23:21:21.998Z,97652.13
2023-02-03T23:24:25.570Z,97665.47
2023-02-03T23:27:30.627Z,97654.03
2023-02-03T23:30:34.227Z,97651.81
2023-02-03T23:33:39.089Z,97645.84
2023-02-03T23:36:41.572Z,97644.22
2023-02-03T23:39:45.060Z,97635.56
2023-02-03T23:42:48.583Z,97642.56
2023-02-03T23:45:52.424Z,97638.69
2023-02-03T23:48:57.241Z,97642.13
2023-02-03T23:52:00.779Z,97639.28
2023-02-03T23:55:07.505Z,97636.34
2023-02-03T23:58:12.755Z,97631.25
